sensor_id;sensor_type;location;lat;lon;timestamp;temperature;humidity
52127;DHT22;38120;53.176;6.614;2023-12-20T00:02:19;6.00;99.90
52127;DHT22;38120;53.176;6.614;2023-12-20T00:04:45;6.00;99.90
52127;DHT22;38120;53.176;6.614;2023-12-20T00:07:10;6.00;99.90
52127;DHT22;38120;53.176;6.614;2023-12-20T00:09:36;6.00;99.90
52127;DHT22;38120;53.176;6.614;2023-12-20T00:12:02;6.00;99.90
52127;DHT22;38120;53.176;6.614;2023-12-20T00:14:28;6.00;99.90
52127;DHT22;38120;53.176;6.614;2023-12-20T00:16:53;6.00;99.90
52127;DHT22;38120;53.176;6.614;2023-12-20T00:19:19;6.10;99.90
52127;DHT22;38120;53.176;6.614;2023-12-20T00:21:45;5.90;99.90
52127;DHT22;38120;53.176;6.614;2023-12-20T00:24:11;5.90;99.90
52127;DHT22;38120;53.176;6.614;2023-12-20T00:26:36;5.90;99.90
52127;DHT22;38120;53.176;6.614;2023-12-20T00:29:02;5.90;99.90
52127;DHT22;38120;53.176;6.614;2023-12-20T00:31:28;5.90;99.90
52127;DHT22;38120;53.176;6.614;2023-12-20T00:33:53;5.80;99.90
52127;DHT22;38120;53.176;6.614;2023-12-20T00:36:20;5.80;99.90
52127;DHT22;38120;53.176;6.614;2023-12-20T00:38:45;5.80;99.90
52127;DHT22;38120;53.176;6.614;2023-12-20T00:41:11;5.80;99.90
52127;DHT22;38120;53.176;6.614;2023-12-20T00:43:37;5.80;99.90
52127;DHT22;38120;53.176;6.614;2023-12-20T00:46:02;5.80;99.90
52127;DHT22;38120;53.176;6.614;2023-12-20T00:48:28;5.80;99.90
52127;DHT22;38120;53.176;6.614;2023-12-20T00:50:57;5.80;99.90
52127;DHT22;38120;53.176;6.614;2023-12-20T00:53:22;5.80;99.90
52127;DHT22;38120;53.176;6.614;2023-12-20T00:55:48;5.80;99.90
52127;DHT22;38120;53.176;6.614;2023-12-20T00:58:15;5.80;99.90
52127;DHT22;38120;53.176;6.614;2023-12-20T01:00:41;5.80;99.90
52127;DHT22;38120;53.176;6.614;2023-12-20T01:03:10;5.90;99.90
52127;DHT22;38120;53.176;6.614;2023-12-20T01:05:36;5.80;99.90
52127;DHT22;38120;53.176;6.614;2023-12-20T01:08:02;5.80;99.90
52127;DHT22;38120;53.176;6.614;2023-12-20T01:10:28;5.80;99.90
52127;DHT22;38120;53.176;6.614;2023-12-20T01:12:55;5.90;99.90
52127;DHT22;38120;53.176;6.614;2023-12-20T01:15:21;5.90;99.90
52127;DHT22;38120;53.176;6.614;2023-12-20T01:17:46;5.90;99.90
52127;DHT22;38120;53.176;6.614;2023-12-20T01:20:13;5.90;99.90
52127;DHT22;38120;53.176;6.614;2023-12-20T01:22:38;5.90;99.90
52127;DHT22;38120;53.176;6.614;2023-12-20T01:25:04;6.20;99.90
52127;DHT22;38120;53.176;6.614;2023-12-20T01:27:30;5.80;99.90
52127;DHT22;38120;53.176;6.614;2023-12-20T01:29:57;5.90;99.90
52127;DHT22;38120;53.176;6.614;2023-12-20T01:32:22;5.90;99.90
52127;DHT22;38120;53.176;6.614;2023-12-20T01:34:48;5.90;99.90
52127;DHT22;38120;53.176;6.614;2023-12-20T01:37:14;6.00;99.90
52127;DHT22;38120;53.176;6.614;2023-12-20T01:39:40;6.10;99.90
52127;DHT22;38120;53.176;6.614;2023-12-20T01:42:05;6.10;99.90
52127;DHT22;38120;53.176;6.614;2023-12-20T01:44:31;6.10;99.90
52127;DHT22;38120;53.176;6.614;2023-12-20T01:46:57;6.20;99.90
52127;DHT22;38120;53.176;6.614;2023-12-20T01:49:23;6.20;99.90
52127;DHT22;38120;53.176;6.614;2023-12-20T01:51:49;6.20;99.90
52127;DHT22;38120;53.176;6.614;2023-12-20T01:54:15;6.20;99.90
52127;DHT22;38120;53.176;6.614;2023-12-20T01:56:41;6.20;99.90
52127;DHT22;38120;53.176;6.614;2023-12-20T01:59:07;6.10;99.90
52127;DHT22;38120;53.176;6.614;2023-12-20T02:01:35;6.10;99.90
52127;DHT22;38120;53.176;6.614;2023-12-20T02:04:01;6.10;99.90
52127;DHT22;38120;53.176;6.614;2023-12-20T02:06:29;6.00;99.90
52127;DHT22;38120;53.176;6.614;2023-12-20T02:08:57;6.00;99.90
52127;DHT22;38120;53.176;6.614;2023-12-20T02:11:23;6.10;99.90
52127;DHT22;38120;53.176;6.614;2023-12-20T02:13:50;6.10;99.90
52127;DHT22;38120;53.176;6.614;2023-12-20T02:16:16;6.00;99.90
52127;DHT22;38120;53.176;6.614;2023-12-20T02:18:43;6.00;99.90
52127;DHT22;38120;53.176;6.614;2023-12-20T02:21:10;6.00;99.90
52127;DHT22;38120;53.176;6.614;2023-12-20T02:23:36;6.00;99.90
52127;DHT22;38120;53.176;6.614;2023-12-20T02:26:02;5.90;99.90
52127;DHT22;38120;53.176;6.614;2023-12-20T02:28:28;5.90;99.90
52127;DHT22;38120;53.176;6.614;2023-12-20T02:30:54;5.90;99.90
52127;DHT22;38120;53.176;6.614;2023-12-20T02:33:20;6.10;99.90
52127;DHT22;38120;53.176;6.614;2023-12-20T02:35:46;6.00;99.90
52127;DHT22;38120;53.176;6.614;2023-12-20T02:38:12;6.00;99.90
52127;DHT22;38120;53.176;6.614;2023-12-20T02:40:38;6.00;99.90
52127;DHT22;38120;53.176;6.614;2023-12-20T02:43:04;6.10;99.90
52127;DHT22;38120;53.176;6.614;2023-12-20T02:45:29;6.10;99.90
52127;DHT22;38120;53.176;6.614;2023-12-20T02:47:55;6.20;99.90
52127;DHT22;38120;53.176;6.614;2023-12-20T02:50:21;6.30;99.90
52127;DHT22;38120;53.176;6.614;2023-12-20T02:52:47;6.30;99.90
52127;DHT22;38120;53.176;6.614;2023-12-20T02:55:13;6.30;99.90
52127;DHT22;38120;53.176;6.614;2023-12-20T02:57:39;6.30;99.90
52127;DHT22;38120;53.176;6.614;2023-12-20T03:00:09;6.30;99.90
52127;DHT22;38120;53.176;6.614;2023-12-20T03:02:35;6.30;99.90
52127;DHT22;38120;53.176;6.614;2023-12-20T03:05:01;6.30;99.90
52127;DHT22;38120;53.176;6.614;2023-12-20T03:07:27;6.30;99.90
52127;DHT22;38120;53.176;6.614;2023-12-20T03:09:52;6.40;99.90
52127;DHT22;38120;53.176;6.614;2023-12-20T03:12:18;6.30;99.90
52127;DHT22;38120;53.176;6.614;2023-12-20T03:14:44;6.40;99.90
52127;DHT22;38120;53.176;6.614;2023-12-20T03:17:14;6.30;99.90
52127;DHT22;38120;53.176;6.614;2023-12-20T03:19:40;6.30;99.90
52127;DHT22;38120;53.176;6.614;2023-12-20T03:22:06;6.30;99.90
52127;DHT22;38120;53.176;6.614;2023-12-20T03:24:31;6.30;99.90
52127;DHT22;38120;53.176;6.614;2023-12-20T03:26:57;6.40;99.90
52127;DHT22;38120;53.176;6.614;2023-12-20T03:29:23;6.40;99.90
52127;DHT22;38120;53.176;6.614;2023-12-20T03:31:49;6.50;99.90
52127;DHT22;38120;53.176;6.614;2023-12-20T03:34:14;6.50;99.90
52127;DHT22;38120;53.176;6.614;2023-12-20T03:36:40;6.50;99.90
52127;DHT22;38120;53.176;6.614;2023-12-20T03:39:06;6.60;99.90
52127;DHT22;38120;53.176;6.614;2023-12-20T03:41:31;6.50;99.90
52127;DHT22;38120;53.176;6.614;2023-12-20T03:43:57;6.40;99.90
52127;DHT22;38120;53.176;6.614;2023-12-20T03:46:23;6.40;99.90
52127;DHT22;38120;53.176;6.614;2023-12-20T03:48:48;6.30;99.90
52127;DHT22;38120;53.176;6.614;2023-12-20T03:51:14;6.30;99.90
52127;DHT22;38120;53.176;6.614;2023-12-20T03:53:39;7.10;99.90
52127;DHT22;38120;53.176;6.614;2023-12-20T03:56:06;6.30;99.90
52127;DHT22;38120;53.176;6.614;2023-12-20T03:58:31;6.30;99.90
52127;DHT22;38120;53.176;6.614;2023-12-20T04:00:57;6.40;99.90
52127;DHT22;38120;53.176;6.614;2023-12-20T04:03:23;6.50;99.90
52127;DHT22;38120;53.176;6.614;2023-12-20T04:05:49;6.50;99.90
52127;DHT22;38120;53.176;6.614;2023-12-20T04:08:14;6.50;99.90
52127;DHT22;38120;53.176;6.614;2023-12-20T04:10:40;6.40;99.90
52127;DHT22;38120;53.176;6.614;2023-12-20T04:13:06;6.60;99.90
52127;DHT22;38120;53.176;6.614;2023-12-20T04:15:31;6.50;99.90
52127;DHT22;38120;53.176;6.614;2023-12-20T04:17:57;6.50;99.90
52127;DHT22;38120;53.176;6.614;2023-12-20T04:20:23;6.50;99.90
52127;DHT22;38120;53.176;6.614;2023-12-20T04:22:48;6.50;99.90
52127;DHT22;38120;53.176;6.614;2023-12-20T04:25:14;6.50;99.90
52127;DHT22;38120;53.176;6.614;2023-12-20T04:27:39;6.50;99.90
52127;DHT22;38120;53.176;6.614;2023-12-20T04:30:06;6.60;99.90
52127;DHT22;38120;53.176;6.614;2023-12-20T04:32:31;6.60;99.90
52127;DHT22;38120;53.176;6.614;2023-12-20T04:34:57;6.60;99.90
52127;DHT22;38120;53.176;6.614;2023-12-20T04:37:24;6.60;99.90
52127;DHT22;38120;53.176;6.614;2023-12-20T04:39:49;6.60;99.90
52127;DHT22;38120;53.176;6.614;2023-12-20T04:42:15;6.60;99.90
52127;DHT22;38120;53.176;6.614;2023-12-20T04:44:41;6.70;99.90
52127;DHT22;38120;53.176;6.614;2023-12-20T04:47:06;6.60;99.90
52127;DHT22;38120;53.176;6.614;2023-12-20T04:49:32;6.60;99.90
52127;DHT22;38120;53.176;6.614;2023-12-20T04:51:58;6.60;99.90
52127;DHT22;38120;53.176;6.614;2023-12-20T04:54:23;6.60;99.90
52127;DHT22;38120;53.176;6.614;2023-12-20T04:56:49;6.70;99.90
52127;DHT22;38120;53.176;6.614;2023-12-20T04:59:15;6.90;99.90
52127;DHT22;38120;53.176;6.614;2023-12-20T05:01:41;6.70;99.90
52127;DHT22;38120;53.176;6.614;2023-12-20T05:04:07;6.80;99.90
52127;DHT22;38120;53.176;6.614;2023-12-20T05:06:32;6.80;99.90
52127;DHT22;38120;53.176;6.614;2023-12-20T05:08:58;6.80;99.90
52127;DHT22;38120;53.176;6.614;2023-12-20T05:11:24;6.90;99.90
52127;DHT22;38120;53.176;6.614;2023-12-20T05:13:50;6.90;99.90
52127;DHT22;38120;53.176;6.614;2023-12-20T05:16:15;6.90;99.90
52127;DHT22;38120;53.176;6.614;2023-12-20T05:18:43;6.90;99.90
52127;DHT22;38120;53.176;6.614;2023-12-20T05:21:09;7.00;99.90
52127;DHT22;38120;53.176;6.614;2023-12-20T05:23:35;7.00;99.90
52127;DHT22;38120;53.176;6.614;2023-12-20T05:26:00;7.00;99.90
52127;DHT22;38120;53.176;6.614;2023-12-20T05:28:26;7.10;99.90
52127;DHT22;38120;53.176;6.614;2023-12-20T05:30:52;7.00;99.90
52127;DHT22;38120;53.176;6.614;2023-12-20T05:33:17;7.10;99.90
52127;DHT22;38120;53.176;6.614;2023-12-20T05:35:43;7.10;99.90
52127;DHT22;38120;53.176;6.614;2023-12-20T05:38:09;7.00;99.90
52127;DHT22;38120;53.176;6.614;2023-12-20T05:40:34;7.40;99.90
52127;DHT22;38120;53.176;6.614;2023-12-20T05:43:00;7.00;99.90
52127;DHT22;38120;53.176;6.614;2023-12-20T05:45:26;7.10;99.90
52127;DHT22;38120;53.176;6.614;2023-12-20T05:47:51;7.10;99.90
52127;DHT22;38120;53.176;6.614;2023-12-20T05:50:17;7.10;99.90
52127;DHT22;38120;53.176;6.614;2023-12-20T05:52:43;7.10;99.90
52127;DHT22;38120;53.176;6.614;2023-12-20T05:55:08;7.10;99.90
52127;DHT22;38120;53.176;6.614;2023-12-20T05:57:35;7.20;99.90
52127;DHT22;38120;53.176;6.614;2023-12-20T06:00:00;7.20;99.90
52127;DHT22;38120;53.176;6.614;2023-12-20T06:02:26;7.20;99.90
52127;DHT22;38120;53.176;6.614;2023-12-20T06:04:52;7.20;99.90
52127;DHT22;38120;53.176;6.614;2023-12-20T06:07:17;7.20;99.90
52127;DHT22;38120;53.176;6.614;2023-12-20T06:09:43;7.20;99.90
52127;DHT22;38120;53.176;6.614;2023-12-20T06:12:09;7.30;99.90
52127;DHT22;38120;53.176;6.614;2023-12-20T06:14:35;7.10;99.90
52127;DHT22;38120;53.176;6.614;2023-12-20T06:17:00;7.20;99.90
52127;DHT22;38120;53.176;6.614;2023-12-20T06:19:27;7.30;99.90
52127;DHT22;38120;53.176;6.614;2023-12-20T06:21:53;7.20;99.90
52127;DHT22;38120;53.176;6.614;2023-12-20T06:24:19;7.20;99.90
52127;DHT22;38120;53.176;6.614;2023-12-20T06:26:44;7.20;99.90
52127;DHT22;38120;53.176;6.614;2023-12-20T06:29:10;7.20;99.90
52127;DHT22;38120;53.176;6.614;2023-12-20T06:31:36;7.20;99.90
52127;DHT22;38120;53.176;6.614;2023-12-20T06:34:01;7.20;99.90
52127;DHT22;38120;53.176;6.614;2023-12-20T06:36:27;7.20;99.90
52127;DHT22;38120;53.176;6.614;2023-12-20T06:38:53;7.40;99.90
52127;DHT22;38120;53.176;6.614;2023-12-20T06:41:19;7.20;99.90
52127;DHT22;38120;53.176;6.614;2023-12-20T06:43:45;7.20;99.90
52127;DHT22;38120;53.176;6.614;2023-12-20T06:46:10;7.30;99.90
52127;DHT22;38120;53.176;6.614;2023-12-20T06:48:38;7.40;99.90
52127;DHT22;38120;53.176;6.614;2023-12-20T06:51:05;7.40;99.90
52127;DHT22;38120;53.176;6.614;2023-12-20T06:53:30;7.50;99.90
52127;DHT22;38120;53.176;6.614;2023-12-20T06:55:56;7.40;99.90
52127;DHT22;38120;53.176;6.614;2023-12-20T06:58:22;7.50;99.90
52127;DHT22;38120;53.176;6.614;2023-12-20T07:00:48;7.50;99.90
52127;DHT22;38120;53.176;6.614;2023-12-20T07:03:14;7.50;99.90
52127;DHT22;38120;53.176;6.614;2023-12-20T07:05:40;7.50;99.90
52127;DHT22;38120;53.176;6.614;2023-12-20T07:08:06;7.50;99.90
52127;DHT22;38120;53.176;6.614;2023-12-20T07:10:34;7.50;99.90
52127;DHT22;38120;53.176;6.614;2023-12-20T07:12:59;7.50;99.90
52127;DHT22;38120;53.176;6.614;2023-12-20T07:15:25;7.50;99.90
52127;DHT22;38120;53.176;6.614;2023-12-20T07:17:52;7.50;99.90
52127;DHT22;38120;53.176;6.614;2023-12-20T07:20:18;7.60;99.90
52127;DHT22;38120;53.176;6.614;2023-12-20T07:22:44;7.60;99.90
52127;DHT22;38120;53.176;6.614;2023-12-20T07:25:09;7.60;99.90
52127;DHT22;38120;53.176;6.614;2023-12-20T07:27:36;7.60;99.90
52127;DHT22;38120;53.176;6.614;2023-12-20T07:30:02;7.60;99.90
52127;DHT22;38120;53.176;6.614;2023-12-20T07:32:27;7.60;99.90
52127;DHT22;38120;53.176;6.614;2023-12-20T07:34:53;7.60;99.90
52127;DHT22;38120;53.176;6.614;2023-12-20T07:37:20;7.60;99.90
52127;DHT22;38120;53.176;6.614;2023-12-20T07:39:46;7.60;99.90
52127;DHT22;38120;53.176;6.614;2023-12-20T07:42:12;7.70;99.90
52127;DHT22;38120;53.176;6.614;2023-12-20T07:44:37;7.70;99.90
52127;DHT22;38120;53.176;6.614;2023-12-20T07:47:04;7.70;99.90
52127;DHT22;38120;53.176;6.614;2023-12-20T07:49:31;7.70;99.90
52127;DHT22;38120;53.176;6.614;2023-12-20T07:51:57;7.80;99.90
52127;DHT22;38120;53.176;6.614;2023-12-20T07:54:23;7.70;99.90
52127;DHT22;38120;53.176;6.614;2023-12-20T07:56:49;7.80;99.90
52127;DHT22;38120;53.176;6.614;2023-12-20T07:59:15;7.80;99.90
52127;DHT22;38120;53.176;6.614;2023-12-20T08:01:40;7.80;99.90
52127;DHT22;38120;53.176;6.614;2023-12-20T08:04:07;7.80;99.90
52127;DHT22;38120;53.176;6.614;2023-12-20T08:06:33;8.20;99.90
52127;DHT22;38120;53.176;6.614;2023-12-20T08:08:59;7.80;99.90
52127;DHT22;38120;53.176;6.614;2023-12-20T08:11:24;7.90;99.90
52127;DHT22;38120;53.176;6.614;2023-12-20T08:13:50;7.90;99.90
52127;DHT22;38120;53.176;6.614;2023-12-20T08:16:16;7.90;99.90
52127;DHT22;38120;53.176;6.614;2023-12-20T08:18:43;8.00;99.90
52127;DHT22;38120;53.176;6.614;2023-12-20T08:21:09;8.00;99.90
52127;DHT22;38120;53.176;6.614;2023-12-20T08:23:35;8.00;99.90
52127;DHT22;38120;53.176;6.614;2023-12-20T08:26:07;7.90;99.90
52127;DHT22;38120;53.176;6.614;2023-12-20T08:28:33;8.00;99.90
52127;DHT22;38120;53.176;6.614;2023-12-20T08:31:00;7.90;99.90
52127;DHT22;38120;53.176;6.614;2023-12-20T08:33:25;8.20;99.90
52127;DHT22;38120;53.176;6.614;2023-12-20T08:35:51;8.20;99.90
52127;DHT22;38120;53.176;6.614;2023-12-20T08:38:17;7.90;99.90
52127;DHT22;38120;53.176;6.614;2023-12-20T08:40:44;7.90;99.90
52127;DHT22;38120;53.176;6.614;2023-12-20T08:43:09;7.90;99.90
52127;DHT22;38120;53.176;6.614;2023-12-20T08:45:35;7.90;99.90
52127;DHT22;38120;53.176;6.614;2023-12-20T08:48:01;8.00;99.90
52127;DHT22;38120;53.176;6.614;2023-12-20T08:50:27;8.00;99.90
52127;DHT22;38120;53.176;6.614;2023-12-20T08:52:52;8.00;99.90
52127;DHT22;38120;53.176;6.614;2023-12-20T08:55:19;7.50;99.90
52127;DHT22;38120;53.176;6.614;2023-12-20T08:57:45;6.60;99.90
52127;DHT22;38120;53.176;6.614;2023-12-20T09:00:11;6.10;99.90
52127;DHT22;38120;53.176;6.614;2023-12-20T09:02:37;5.80;99.90
52127;DHT22;38120;53.176;6.614;2023-12-20T09:05:04;5.60;99.90
52127;DHT22;38120;53.176;6.614;2023-12-20T09:07:31;5.60;99.90
52127;DHT22;38120;53.176;6.614;2023-12-20T09:09:58;5.60;99.90
52127;DHT22;38120;53.176;6.614;2023-12-20T09:12:24;5.80;99.90
52127;DHT22;38120;53.176;6.614;2023-12-20T09:14:51;5.70;99.90
52127;DHT22;38120;53.176;6.614;2023-12-20T09:17:17;5.80;99.90
52127;DHT22;38120;53.176;6.614;2023-12-20T09:19:45;5.80;99.90
52127;DHT22;38120;53.176;6.614;2023-12-20T09:22:11;5.80;99.90
52127;DHT22;38120;53.176;6.614;2023-12-20T09:24:37;5.80;99.90
52127;DHT22;38120;53.176;6.614;2023-12-20T09:27:04;6.60;99.90
52127;DHT22;38120;53.176;6.614;2023-12-20T09:29:31;5.80;99.90
52127;DHT22;38120;53.176;6.614;2023-12-20T09:31:57;5.80;99.90
52127;DHT22;38120;53.176;6.614;2023-12-20T09:34:23;5.80;99.90
52127;DHT22;38120;53.176;6.614;2023-12-20T09:36:49;5.80;99.90
52127;DHT22;38120;53.176;6.614;2023-12-20T09:39:16;5.80;99.90
52127;DHT22;38120;53.176;6.614;2023-12-20T09:41:45;6.00;99.90
52127;DHT22;38120;53.176;6.614;2023-12-20T09:44:15;5.80;99.90
52127;DHT22;38120;53.176;6.614;2023-12-20T09:46:50;5.80;99.90
52127;DHT22;38120;53.176;6.614;2023-12-20T09:49:19;5.80;99.90
52127;DHT22;38120;53.176;6.614;2023-12-20T09:51:46;5.80;99.90
52127;DHT22;38120;53.176;6.614;2023-12-20T09:54:16;5.80;99.90
52127;DHT22;38120;53.176;6.614;2023-12-20T09:56:42;5.90;99.90
52127;DHT22;38120;53.176;6.614;2023-12-20T09:59:08;5.90;99.90
52127;DHT22;38120;53.176;6.614;2023-12-20T10:01:35;5.90;99.90
52127;DHT22;38120;53.176;6.614;2023-12-20T10:04:06;6.00;99.90
52127;DHT22;38120;53.176;6.614;2023-12-20T10:06:42;5.90;99.90
52127;DHT22;38120;53.176;6.614;2023-12-20T10:09:08;6.30;99.90
52127;DHT22;38120;53.176;6.614;2023-12-20T10:11:36;5.90;99.90
52127;DHT22;38120;53.176;6.614;2023-12-20T10:14:08;6.00;99.90
52127;DHT22;38120;53.176;6.614;2023-12-20T10:16:33;6.00;99.90
52127;DHT22;38120;53.176;6.614;2023-12-20T10:19:00;6.10;99.90
52127;DHT22;38120;53.176;6.614;2023-12-20T10:21:30;6.10;99.90
52127;DHT22;38120;53.176;6.614;2023-12-20T10:23:56;6.10;99.90
52127;DHT22;38120;53.176;6.614;2023-12-20T10:26:24;6.10;99.90
52127;DHT22;38120;53.176;6.614;2023-12-20T10:28:59;6.50;99.90
52127;DHT22;38120;53.176;6.614;2023-12-20T10:31:30;6.10;99.90
52127;DHT22;38120;53.176;6.614;2023-12-20T10:33:58;6.10;99.90
52127;DHT22;38120;53.176;6.614;2023-12-20T10:36:29;6.30;99.90
52127;DHT22;38120;53.176;6.614;2023-12-20T10:38:59;6.30;99.90
52127;DHT22;38120;53.176;6.614;2023-12-20T10:41:29;6.40;99.90
52127;DHT22;38120;53.176;6.614;2023-12-20T10:44:01;6.40;99.90
52127;DHT22;38120;53.176;6.614;2023-12-20T10:46:30;6.40;99.90
52127;DHT22;38120;53.176;6.614;2023-12-20T10:48:57;6.90;99.90
52127;DHT22;38120;53.176;6.614;2023-12-20T10:51:24;6.50;99.90
52127;DHT22;38120;53.176;6.614;2023-12-20T10:53:53;6.60;99.90
52127;DHT22;38120;53.176;6.614;2023-12-20T10:56:19;6.40;99.90
52127;DHT22;38120;53.176;6.614;2023-12-20T10:58:49;6.80;99.90
52127;DHT22;38120;53.176;6.614;2023-12-20T11:01:16;6.40;99.90
52127;DHT22;38120;53.176;6.614;2023-12-20T11:03:53;6.40;99.90
52127;DHT22;38120;53.176;6.614;2023-12-20T11:06:27;6.40;99.90
52127;DHT22;38120;53.176;6.614;2023-12-20T11:12:09;6.50;99.90
52127;DHT22;38120;53.176;6.614;2023-12-20T11:17:10;6.50;99.90
52127;DHT22;38120;53.176;6.614;2023-12-20T11:22:25;6.60;99.90
52127;DHT22;38120;53.176;6.614;2023-12-20T11:24:52;6.70;99.90
52127;DHT22;38120;53.176;6.614;2023-12-20T11:27:19;6.70;99.90
52127;DHT22;38120;53.176;6.614;2023-12-20T11:29:52;6.70;99.90
52127;DHT22;38120;53.176;6.614;2023-12-20T11:34:51;6.70;99.90
52127;DHT22;38120;53.176;6.614;2023-12-20T11:37:19;6.70;99.90
52127;DHT22;38120;53.176;6.614;2023-12-20T11:39:45;6.70;99.90
52127;DHT22;38120;53.176;6.614;2023-12-20T11:42:11;6.80;99.90
52127;DHT22;38120;53.176;6.614;2023-12-20T11:44:37;6.80;99.90
52127;DHT22;38120;53.176;6.614;2023-12-20T11:47:03;6.80;99.90
52127;DHT22;38120;53.176;6.614;2023-12-20T11:49:29;6.90;99.90
52127;DHT22;38120;53.176;6.614;2023-12-20T11:51:56;7.10;99.90
52127;DHT22;38120;53.176;6.614;2023-12-20T11:54:22;7.00;99.90
52127;DHT22;38120;53.176;6.614;2023-12-20T11:56:48;7.00;99.90
52127;DHT22;38120;53.176;6.614;2023-12-20T11:59:14;7.00;99.90
52127;DHT22;38120;53.176;6.614;2023-12-20T12:01:47;7.00;99.90
52127;DHT22;38120;53.176;6.614;2023-12-20T12:04:12;7.10;99.90
52127;DHT22;38120;53.176;6.614;2023-12-20T12:06:39;7.10;99.90
52127;DHT22;38120;53.176;6.614;2023-12-20T12:09:05;7.10;99.90
52127;DHT22;38120;53.176;6.614;2023-12-20T12:11:31;7.10;99.90
52127;DHT22;38120;53.176;6.614;2023-12-20T12:13:56;7.10;99.90
52127;DHT22;38120;53.176;6.614;2023-12-20T12:16:22;7.10;99.90
52127;DHT22;38120;53.176;6.614;2023-12-20T12:18:58;7.10;99.90
52127;DHT22;38120;53.176;6.614;2023-12-20T12:21:24;7.10;99.90
52127;DHT22;38120;53.176;6.614;2023-12-20T12:23:50;7.10;99.90
52127;DHT22;38120;53.176;6.614;2023-12-20T12:26:16;7.40;99.90
52127;DHT22;38120;53.176;6.614;2023-12-20T12:28:42;7.10;99.90
52127;DHT22;38120;53.176;6.614;2023-12-20T12:31:09;7.20;99.90
52127;DHT22;38120;53.176;6.614;2023-12-20T12:33:39;7.20;99.90
52127;DHT22;38120;53.176;6.614;2023-12-20T12:36:07;7.20;99.90
52127;DHT22;38120;53.176;6.614;2023-12-20T12:38:33;7.20;99.90
52127;DHT22;38120;53.176;6.614;2023-12-20T12:41:00;7.20;99.90
52127;DHT22;38120;53.176;6.614;2023-12-20T12:43:26;7.20;99.90
52127;DHT22;38120;53.176;6.614;2023-12-20T12:45:52;7.20;99.90
52127;DHT22;38120;53.176;6.614;2023-12-20T12:48:18;7.20;99.90
52127;DHT22;38120;53.176;6.614;2023-12-20T12:50:45;7.30;99.90
52127;DHT22;38120;53.176;6.614;2023-12-20T12:53:10;7.30;99.90
52127;DHT22;38120;53.176;6.614;2023-12-20T12:55:36;7.40;99.90
52127;DHT22;38120;53.176;6.614;2023-12-20T12:58:02;7.40;99.90
52127;DHT22;38120;53.176;6.614;2023-12-20T13:00:28;7.50;99.90
52127;DHT22;38120;53.176;6.614;2023-12-20T13:02:54;7.50;99.90
52127;DHT22;38120;53.176;6.614;2023-12-20T13:05:19;7.90;99.90
52127;DHT22;38120;53.176;6.614;2023-12-20T13:07:45;7.50;99.90
52127;DHT22;38120;53.176;6.614;2023-12-20T13:10:11;7.50;99.90
52127;DHT22;38120;53.176;6.614;2023-12-20T13:12:37;7.50;99.90
52127;DHT22;38120;53.176;6.614;2023-12-20T13:15:03;7.40;99.90
52127;DHT22;38120;53.176;6.614;2023-12-20T13:17:31;7.40;99.90
52127;DHT22;38120;53.176;6.614;2023-12-20T13:19:57;7.30;99.90
52127;DHT22;38120;53.176;6.614;2023-12-20T13:22:23;7.40;99.90
52127;DHT22;38120;53.176;6.614;2023-12-20T13:24:49;7.80;99.90
52127;DHT22;38120;53.176;6.614;2023-12-20T13:27:15;7.30;99.90
52127;DHT22;38120;53.176;6.614;2023-12-20T13:29:40;7.20;99.90
52127;DHT22;38120;53.176;6.614;2023-12-20T13:32:06;7.30;99.90
52127;DHT22;38120;53.176;6.614;2023-12-20T13:34:32;7.20;99.90
52127;DHT22;38120;53.176;6.614;2023-12-20T13:36:58;7.20;99.90
52127;DHT22;38120;53.176;6.614;2023-12-20T13:39:23;7.20;99.90
52127;DHT22;38120;53.176;6.614;2023-12-20T13:41:49;7.30;99.90
52127;DHT22;38120;53.176;6.614;2023-12-20T13:44:15;7.00;99.90
52127;DHT22;38120;53.176;6.614;2023-12-20T13:46:41;7.00;99.90
52127;DHT22;38120;53.176;6.614;2023-12-20T13:49:07;7.00;99.90
52127;DHT22;38120;53.176;6.614;2023-12-20T13:51:32;7.00;99.90
52127;DHT22;38120;53.176;6.614;2023-12-20T13:53:58;7.00;99.90
52127;DHT22;38120;53.176;6.614;2023-12-20T13:56:25;6.90;99.90
52127;DHT22;38120;53.176;6.614;2023-12-20T13:58:51;6.90;99.90
52127;DHT22;38120;53.176;6.614;2023-12-20T14:01:17;7.10;99.90
52127;DHT22;38120;53.176;6.614;2023-12-20T14:03:42;6.80;99.90
52127;DHT22;38120;53.176;6.614;2023-12-20T14:06:08;6.80;99.90
52127;DHT22;38120;53.176;6.614;2023-12-20T14:08:34;6.80;99.90
52127;DHT22;38120;53.176;6.614;2023-12-20T14:11:01;7.10;99.90
52127;DHT22;38120;53.176;6.614;2023-12-20T14:13:27;6.70;99.90
52127;DHT22;38120;53.176;6.614;2023-12-20T14:15:53;7.40;99.90
52127;DHT22;38120;53.176;6.614;2023-12-20T14:18:20;6.70;99.90
52127;DHT22;38120;53.176;6.614;2023-12-20T14:20:48;6.70;99.90
52127;DHT22;38120;53.176;6.614;2023-12-20T14:23:16;6.60;99.90
52127;DHT22;38120;53.176;6.614;2023-12-20T14:25:42;6.60;99.90
52127;DHT22;38120;53.176;6.614;2023-12-20T14:28:08;5.00;99.90
52127;DHT22;38120;53.176;6.614;2023-12-20T14:30:33;6.60;99.90
52127;DHT22;38120;53.176;6.614;2023-12-20T14:33:00;6.50;99.90
52127;DHT22;38120;53.176;6.614;2023-12-20T14:35:26;6.60;99.90
52127;DHT22;38120;53.176;6.614;2023-12-20T14:37:51;6.60;99.90
52127;DHT22;38120;53.176;6.614;2023-12-20T14:40:17;6.50;99.90
52127;DHT22;38120;53.176;6.614;2023-12-20T14:42:44;6.50;99.90
52127;DHT22;38120;53.176;6.614;2023-12-20T14:45:10;6.50;99.90
52127;DHT22;38120;53.176;6.614;2023-12-20T14:47:36;6.50;99.90
52127;DHT22;38120;53.176;6.614;2023-12-20T14:50:02;6.50;99.90
52127;DHT22;38120;53.176;6.614;2023-12-20T14:52:29;6.40;99.90
52127;DHT22;38120;53.176;6.614;2023-12-20T14:54:55;6.40;99.90
52127;DHT22;38120;53.176;6.614;2023-12-20T14:57:21;6.50;99.90
52127;DHT22;38120;53.176;6.614;2023-12-20T14:59:46;6.50;99.90
52127;DHT22;38120;53.176;6.614;2023-12-20T15:02:12;6.50;99.90
52127;DHT22;38120;53.176;6.614;2023-12-20T15:04:38;6.50;99.90
52127;DHT22;38120;53.176;6.614;2023-12-20T15:07:04;6.40;99.90
52127;DHT22;38120;53.176;6.614;2023-12-20T15:09:31;6.50;99.90
52127;DHT22;38120;53.176;6.614;2023-12-20T15:11:57;6.40;99.90
52127;DHT22;38120;53.176;6.614;2023-12-20T15:14:23;6.50;99.90
52127;DHT22;38120;53.176;6.614;2023-12-20T15:16:49;6.50;99.90
52127;DHT22;38120;53.176;6.614;2023-12-20T15:19:15;6.50;99.90
52127;DHT22;38120;53.176;6.614;2023-12-20T15:21:41;6.50;99.90
52127;DHT22;38120;53.176;6.614;2023-12-20T15:24:11;6.50;99.90
52127;DHT22;38120;53.176;6.614;2023-12-20T15:26:42;6.50;99.90
52127;DHT22;38120;53.176;6.614;2023-12-20T15:29:09;6.50;99.90
52127;DHT22;38120;53.176;6.614;2023-12-20T15:31:36;6.50;99.90
52127;DHT22;38120;53.176;6.614;2023-12-20T15:34:03;6.50;99.90
52127;DHT22;38120;53.176;6.614;2023-12-20T15:36:29;6.50;99.90
52127;DHT22;38120;53.176;6.614;2023-12-20T15:38:54;6.50;99.90
52127;DHT22;38120;53.176;6.614;2023-12-20T15:41:21;6.50;99.90
52127;DHT22;38120;53.176;6.614;2023-12-20T15:43:47;6.50;99.90
52127;DHT22;38120;53.176;6.614;2023-12-20T15:46:14;6.50;99.90
52127;DHT22;38120;53.176;6.614;2023-12-20T15:48:40;6.50;99.90
52127;DHT22;38120;53.176;6.614;2023-12-20T15:51:07;7.00;99.90